createdAt,value
2022-08-03T00:01:56.377Z,25.54
2022-08-03T00:04:23.199Z,25.54
2022-08-03T00:07:01.338Z,25.46
2022-08-03T00:09:28.271Z,25.45
2022-08-03T00:12:02.766Z,25.41
2022-08-03T00:14:29.579Z,25.37
2022-08-03T00:16:56.591Z,25.27
2022-08-03T00:19:24.711Z,25.00
2022-08-03T00:21:51.922Z,25.11
2022-08-03T00:24:18.569Z,25.29
2022-08-03T00:26:45.507Z,25.08
2022-08-03T00:29:15.001Z,25.09
2022-08-03T00:31:52.434Z,25.07
2022-08-03T00:34:29.839Z,25.08
2022-08-03T00:37:16.360Z,25.08
2022-08-03T00:39:45.971Z,25.01
2022-08-03T00:42:13.154Z,24.90
2022-08-03T00:44:42.175Z,24.85
2022-08-03T00:47:11.680Z,24.99
2022-08-03T00:49:42.028Z,25.17
2022-08-03T00:52:10.179Z,25.06
2022-08-03T00:54:40.340Z,25.30
2022-08-03T00:57:08.010Z,25.16
2022-08-03T00:59:34.896Z,25.42
2022-08-03T01:02:01.763Z,25.23
2022-08-03T01:04:28.564Z,25.16
2022-08-03T01:07:11.099Z,25.44
2022-08-03T01:09:59.774Z,25.42
2022-08-03T01:12:42.049Z,25.47
2022-08-03T01:15:48.412Z,25.69
2022-08-03T01:18:20.783Z,25.04
2022-08-03T01:20:56.154Z,25.08
2022-08-03T01:23:34.401Z,24.83
2022-08-03T01:26:34.555Z,24.90
2022-08-03T01:29:41.182Z,24.69
2022-08-03T01:33:02.302Z,24.53
2022-08-03T01:35:12.419Z,24.31
2022-08-03T01:37:57.780Z,24.55
2022-08-03T01:40:26.899Z,24.70
2022-08-03T01:42:57.621Z,24.80
2022-08-03T01:45:25.161Z,24.69
2022-08-03T01:47:53.132Z,24.40
2022-08-03T01:50:25.359Z,24.50
2022-08-03T01:52:54.611Z,24.43
2022-08-03T01:55:23.801Z,24.36
2022-08-03T01:58:06.177Z,24.52
2022-08-03T02:00:39.343Z,24.40
2022-08-03T02:03:09.987Z,24.59
2022-08-03T02:05:39.649Z,24.45
2022-08-03T02:08:10.747Z,24.51
2022-08-03T02:10:40.743Z,24.20
2022-08-03T02:13:09.087Z,24.08
2022-08-03T02:15:37.474Z,24.26
2022-08-03T02:18:07.794Z,24.22
2022-08-03T02:20:37.934Z,24.40
2022-08-03T02:23:06.751Z,24.52
2022-08-03T02:25:38.028Z,23.98
2022-08-03T02:28:15.431Z,24.16
2022-08-03T02:30:45.631Z,24.21
2022-08-03T02:33:20.113Z,24.19
2022-08-03T02:35:50.194Z,23.96
2022-08-03T02:38:21.227Z,24.19
2022-08-03T02:40:51.576Z,24.19
2022-08-03T02:43:22.216Z,24.04
2022-08-03T02:45:54.059Z,24.08
2022-08-03T02:48:25.532Z,24.17
2022-08-03T02:50:55.609Z,24.12
2022-08-03T02:53:26.069Z,24.21
2022-08-03T02:55:58.439Z,24.32
2022-08-03T02:58:26.422Z,24.43
2022-08-03T03:00:54.517Z,24.30
2022-08-03T03:03:22.830Z,24.27
2022-08-03T03:05:54.653Z,24.21
2022-08-03T03:08:26.121Z,24.20
2022-08-03T03:11:00.853Z,24.32
2022-08-03T03:13:32.255Z,24.21
2022-08-03T03:16:04.878Z,24.17
2022-08-03T03:18:33.723Z,24.14
2022-08-03T03:21:02.902Z,24.13
2022-08-03T03:23:33.997Z,24.23
2022-08-03T03:26:04.774Z,24.22
2022-08-03T03:28:32.484Z,23.87
2022-08-03T03:30:59.808Z,24.01
2022-08-03T03:33:29.716Z,24.05
2022-08-03T03:35:58.683Z,24.33
2022-08-03T03:38:25.594Z,24.25
2022-08-03T03:40:52.812Z,24.12
2022-08-03T03:43:19.764Z,23.94
2022-08-03T03:45:50.291Z,23.77
2022-08-03T03:48:17.622Z,23.68
2022-08-03T03:50:44.679Z,24.00
2022-08-03T03:53:12.834Z,23.88
2022-08-03T03:56:01.847Z,23.82
2022-08-03T03:58:30.925Z,24.12
2022-08-03T04:00:57.965Z,24.18
2022-08-03T04:03:24.707Z,24.48
2022-08-03T04:06:11.878Z,24.22
2022-08-03T04:08:58.745Z,24.15
2022-08-03T04:11:30.047Z,24.36
2022-08-03T04:14:03.678Z,24.39
2022-08-03T04:16:43.862Z,24.56
2022-08-03T04:19:23.487Z,24.25
2022-08-03T04:21:57.067Z,24.34
2022-08-03T04:24:27.211Z,24.40
2022-08-03T04:26:55.245Z,24.54
2022-08-03T04:29:24.270Z,24.50
2022-08-03T04:31:56.546Z,24.64
2022-08-03T04:34:27.349Z,24.85
2022-08-03T04:36:59.952Z,25.02
2022-08-03T04:39:30.651Z,24.91
2022-08-03T04:42:07.718Z,24.68
2022-08-03T04:44:42.649Z,25.04
2022-08-03T04:47:09.423Z,24.72
2022-08-03T04:49:38.311Z,24.80
2022-08-03T04:52:08.775Z,24.68
2022-08-03T04:54:50.222Z,25.01
2022-08-03T04:57:22.929Z,24.93
2022-08-03T04:59:58.242Z,24.86
2022-08-03T05:02:28.984Z,25.06
2022-08-03T05:04:55.732Z,25.24
2022-08-03T05:07:24.802Z,25.13
2022-08-03T05:10:01.656Z,25.33
2022-08-03T05:12:32.787Z,25.33
2022-08-03T05:15:02.798Z,25.68
2022-08-03T05:17:29.573Z,25.61
2022-08-03T05:19:56.774Z,25.76
2022-08-03T05:22:24.094Z,25.73
2022-08-03T05:24:51.163Z,26.06
2022-08-03T05:27:19.503Z,26.46
2022-08-03T05:29:46.803Z,26.56
2022-08-03T05:32:13.650Z,26.52
2022-08-03T05:34:43.020Z,26.75
2022-08-03T05:37:09.972Z,26.50
2022-08-03T05:39:36.687Z,26.93
2022-08-03T05:42:04.066Z,27.00
2022-08-03T05:44:33.115Z,27.08
2022-08-03T05:46:59.949Z,26.94
2022-08-03T05:49:26.726Z,27.23
2022-08-03T05:52:00.268Z,27.21
2022-08-03T05:54:55.946Z,27.20
2022-08-03T05:57:22.832Z,27.11
2022-08-03T05:59:55.565Z,27.19
2022-08-03T06:02:28.948Z,27.37
2022-08-03T06:04:55.730Z,27.10
2022-08-03T06:07:23.024Z,27.59
2022-08-03T06:10:33.835Z,27.51
2022-08-03T06:12:36.828Z,27.89
2022-08-03T06:15:07.824Z,27.73
2022-08-03T06:17:45.501Z,27.90
2022-08-03T06:20:12.485Z,27.95
2022-08-03T06:22:50.475Z,28.06
2022-08-03T06:25:21.236Z,28.50
2022-08-03T06:27:48.304Z,28.20
2022-08-03T06:30:19.264Z,28.24
2022-08-03T06:32:51.741Z,28.40
2022-08-03T06:35:19.374Z,28.64
2022-08-03T06:37:48.237Z,28.84
2022-08-03T06:40:24.426Z,28.76
2022-08-03T06:42:51.498Z,28.62
2022-08-03T06:45:18.233Z,29.06
2022-08-03T06:47:45.031Z,29.20
2022-08-03T06:50:16.639Z,29.31
2022-08-03T06:52:45.479Z,29.30
2022-08-03T06:55:12.488Z,29.16
2022-08-03T06:57:39.168Z,29.92
2022-08-03T07:00:16.023Z,29.83
2022-08-03T07:02:42.803Z,29.55
2022-08-03T07:05:10.036Z,29.72
2022-08-03T07:07:37.666Z,29.62
2022-08-03T07:10:06.062Z,29.92
2022-08-03T07:12:34.022Z,29.90
2022-08-03T07:15:04.773Z,30.14
2022-08-03T07:17:34.070Z,30.05
2022-08-03T07:20:02.531Z,29.76
2022-08-03T07:22:29.537Z,30.10
2022-08-03T07:24:56.742Z,30.06
2022-08-03T07:27:23.953Z,29.85
2022-08-03T07:29:50.792Z,30.06
2022-08-03T07:32:17.776Z,30.39
2022-08-03T07:34:44.749Z,30.10
2022-08-03T07:37:11.543Z,30.21
2022-08-03T07:39:38.209Z,30.45
2022-08-03T07:42:05.579Z,30.62
2022-08-03T07:44:32.321Z,30.71
2022-08-03T07:46:59.214Z,30.53
2022-08-03T07:49:30.424Z,30.53
2022-08-03T07:52:16.095Z,30.56
2022-08-03T07:54:43.807Z,30.89
2022-08-03T07:57:10.533Z,30.84
2022-08-03T07:59:56.693Z,31.36
2022-08-03T08:02:23.814Z,31.28
2022-08-03T08:04:50.510Z,31.30
2022-08-03T08:07:17.287Z,31.86
2022-08-03T08:09:46.863Z,31.43
2022-08-03T08:12:15.330Z,31.35
2022-08-03T08:14:42.551Z,31.54
2022-08-03T08:17:09.155Z,32.04
2022-08-03T08:19:36.795Z,31.49
2022-08-03T08:22:08.536Z,31.46
2022-08-03T08:24:38.343Z,31.14
2022-08-03T08:27:06.220Z,31.45
2022-08-03T08:29:32.840Z,31.78
2022-08-03T08:31:59.561Z,32.04
2022-08-03T08:34:27.315Z,32.17
2022-08-03T08:36:54.037Z,31.91
2022-08-03T08:39:20.834Z,31.98
2022-08-03T08:41:53.306Z,32.21
2022-08-03T08:44:21.320Z,31.93
2022-08-03T08:46:50.085Z,31.73
2022-08-03T08:49:18.651Z,31.90
2022-08-03T08:51:59.619Z,32.12
2022-08-03T08:54:29.693Z,32.53
2022-08-03T08:56:59.399Z,32.40
2022-08-03T08:59:48.372Z,31.90
2022-08-03T09:02:15.775Z,32.21
2022-08-03T09:04:43.124Z,32.33
2022-08-03T09:07:19.946Z,32.27
2022-08-03T09:10:11.911Z,32.62
2022-08-03T09:12:45.826Z,32.40
2022-08-03T09:15:27.310Z,32.61
2022-08-03T09:17:57.265Z,32.31
2022-08-03T09:20:26.605Z,32.19
2022-08-03T09:22:57.852Z,32.31
2022-08-03T09:25:42.303Z,32.26
2022-08-03T09:28:10.349Z,32.77
2022-08-03T09:30:40.105Z,32.59
2022-08-03T09:33:08.972Z,32.63
2022-08-03T09:35:57.337Z,33.35
2022-08-03T09:38:28.304Z,32.95
2022-08-03T09:41:00.044Z,33.17
2022-08-03T09:43:28.580Z,33.04
2022-08-03T09:46:05.533Z,33.17
2022-08-03T09:48:36.879Z,32.56
2022-08-03T09:51:12.749Z,32.90
2022-08-03T09:53:58.564Z,32.92
2022-08-03T09:56:41.606Z,33.71
2022-08-03T09:59:09.009Z,33.64
2022-08-03T10:01:37.358Z,33.28
2022-08-03T10:04:05.276Z,33.49
2022-08-03T10:06:32.620Z,33.38
2022-08-03T10:09:16.939Z,33.58
2022-08-03T10:11:44.794Z,33.50
2022-08-03T10:14:19.597Z,33.68
2022-08-03T10:16:47.834Z,33.55
2022-08-03T10:19:15.694Z,33.70
2022-08-03T10:21:56.432Z,34.37
2022-08-03T10:24:28.242Z,34.19
2022-08-03T10:27:04.428Z,34.74
2022-08-03T10:29:38.724Z,34.89
2022-08-03T10:32:19.130Z,34.35
2022-08-03T10:34:51.202Z,34.86
2022-08-03T10:40:33.431Z,34.62
2022-08-03T10:43:18.746Z,35.08
2022-08-03T10:45:46.597Z,34.86
2022-08-03T10:48:13.716Z,35.14
2022-08-03T10:50:44.193Z,35.18
2022-08-03T10:53:11.164Z,35.47
2022-08-03T10:56:05.471Z,35.93
2022-08-03T10:58:53.237Z,37.55
2022-08-03T11:01:58.962Z,37.52
2022-08-03T11:04:29.578Z,38.16
2022-08-03T11:07:16.134Z,38.89
2022-08-03T11:09:45.345Z,38.64
2022-08-03T11:12:31.333Z,41.01
2022-08-03T11:15:10.374Z,42.03
2022-08-03T11:17:46.285Z,42.60
2022-08-03T11:20:46.077Z,42.60
2022-08-03T11:23:14.458Z,41.86
2022-08-03T11:26:21.300Z,43.11
2022-08-03T11:28:48.822Z,40.18
2022-08-03T11:31:48.880Z,43.51
2022-08-03T11:34:16.139Z,42.93
2022-08-03T11:37:19.192Z,42.03
2022-08-03T11:39:48.225Z,41.51
2022-08-03T11:42:29.347Z,41.72
2022-08-03T11:45:07.718Z,43.09
2022-08-03T11:47:37.585Z,43.06
2022-08-03T11:50:20.029Z,42.66
2022-08-03T11:52:47.752Z,43.43
2022-08-03T11:55:16.951Z,44.40
2022-08-03T11:59:15.312Z,46.27
2022-08-03T12:00:32.975Z,45.38
2022-08-03T12:03:12.108Z,45.77
2022-08-03T12:05:51.006Z,46.21
2022-08-03T12:08:28.248Z,46.93
2022-08-03T12:10:56.244Z,45.87
2022-08-03T12:14:36.708Z,45.31
2022-08-03T12:16:11.617Z,44.21
2022-08-03T12:18:38.512Z,44.84
2022-08-03T12:21:09.885Z,45.20
2022-08-03T12:23:38.192Z,46.23
2022-08-03T12:26:14.140Z,42.63
2022-08-03T12:28:49.983Z,42.98
2022-08-03T12:31:18.283Z,43.37
2022-08-03T12:34:03.507Z,42.46
2022-08-03T12:36:32.297Z,42.52
2022-08-03T12:39:04.452Z,40.86
2022-08-03T12:41:36.843Z,40.73
2022-08-03T12:44:11.121Z,40.81
2022-08-03T12:46:45.391Z,40.00
2022-08-03T12:49:15.852Z,41.04
2022-08-03T12:51:42.557Z,40.60
2022-08-03T12:54:24.290Z,41.14
2022-08-03T12:57:15.830Z,40.11
2022-08-03T12:59:53.257Z,41.98
2022-08-03T13:02:26.310Z,41.31
2022-08-03T13:04:54.903Z,43.56
2022-08-03T13:07:22.870Z,42.91
2022-08-03T13:09:53.188Z,42.26
2022-08-03T13:12:21.481Z,42.12
2022-08-03T13:14:53.164Z,43.58
2022-08-03T13:17:20.602Z,42.34
2022-08-03T13:19:48.321Z,42.46
2022-08-03T13:22:16.392Z,43.72
2022-08-03T13:24:44.685Z,43.37
2022-08-03T13:28:02.565Z,41.22
2022-08-03T13:29:59.569Z,40.31
2022-08-03T13:32:26.299Z,41.06
2022-08-03T13:34:53.134Z,41.78
2022-08-03T13:37:22.857Z,41.88
2022-08-03T13:39:57.937Z,41.35
2022-08-03T13:42:30.468Z,41.03
2022-08-03T13:44:57.832Z,41.26
2022-08-03T13:47:24.880Z,43.33
2022-08-03T13:50:00.026Z,43.46
2022-08-03T13:52:35.976Z,43.05
2022-08-03T13:55:05.307Z,42.54
2022-08-03T13:58:05.684Z,43.91
2022-08-03T14:00:27.093Z,44.57
2022-08-03T14:03:16.401Z,44.66
2022-08-03T14:05:44.013Z,44.51
2022-08-03T14:08:11.730Z,44.13
2022-08-03T14:10:42.033Z,43.81
2022-08-03T14:13:11.660Z,43.31
2022-08-03T14:15:38.852Z,43.30
2022-08-03T14:18:16.042Z,43.69
2022-08-03T14:20:56.441Z,43.32
2022-08-03T14:23:25.032Z,43.25
2022-08-03T14:25:53.080Z,42.53
2022-08-03T14:28:25.364Z,42.79
2022-08-03T14:30:53.871Z,42.09
2022-08-03T14:33:24.251Z,41.85
2022-08-03T14:35:51.975Z,41.58
2022-08-03T14:38:19.094Z,41.52
2022-08-03T14:40:46.811Z,41.22
2022-08-03T14:43:14.039Z,40.39
2022-08-03T14:45:41.475Z,39.55
2022-08-03T14:50:31.913Z,39.62
2022-08-03T14:50:55.517Z,39.47
2022-08-03T14:53:23.052Z,39.60
2022-08-03T14:55:51.760Z,38.26
2022-08-03T14:58:23.356Z,37.52
2022-08-03T15:00:51.927Z,37.85
2022-08-03T15:03:23.606Z,37.97
2022-08-03T15:05:55.836Z,38.18
2022-08-03T15:08:25.215Z,38.73
2022-08-03T15:10:52.394Z,38.56
2022-08-03T15:13:20.058Z,38.53
2022-08-03T15:15:48.213Z,38.47
2022-08-03T15:18:15.352Z,38.40
2022-08-03T15:20:45.410Z,37.97
2022-08-03T15:23:14.156Z,37.51
2022-08-03T15:26:30.239Z,37.35
2022-08-03T15:28:28.775Z,37.15
2022-08-03T15:30:55.504Z,36.93
2022-08-03T15:33:22.373Z,37.33
2022-08-03T15:35:49.951Z,36.97
2022-08-03T15:38:17.174Z,37.05
2022-08-03T15:40:43.997Z,37.43
2022-08-03T15:43:10.880Z,37.22
2022-08-03T15:45:37.643Z,37.15
2022-08-03T15:48:07.514Z,37.20
2022-08-03T15:50:34.408Z,37.31
2022-08-03T15:53:01.401Z,37.74
2022-08-03T15:55:28.183Z,37.59
2022-08-03T15:59:09.330Z,37.64
2022-08-03T16:00:43.073Z,37.92
2022-08-03T16:03:10.615Z,37.59
2022-08-03T16:05:37.518Z,37.34
2022-08-03T16:08:06.285Z,36.72
2022-08-03T16:10:36.059Z,36.84
2022-08-03T16:13:02.898Z,37.02
2022-08-03T16:15:29.680Z,36.95
2022-08-03T16:17:56.556Z,36.82
2022-08-03T16:20:31.246Z,36.36
2022-08-03T16:23:05.511Z,36.43
2022-08-03T16:25:40.924Z,36.63
2022-08-03T16:28:13.861Z,36.56
2022-08-03T16:30:43.337Z,36.70
2022-08-03T16:33:11.556Z,36.38
2022-08-03T16:35:44.305Z,36.29
2022-08-03T16:38:15.211Z,36.05
2022-08-03T16:40:45.886Z,35.99
2022-08-03T16:43:18.171Z,36.02
2022-08-03T16:45:46.119Z,36.05
2022-08-03T16:48:13.165Z,35.98
2022-08-03T16:50:40.064Z,35.80
2022-08-03T16:53:09.200Z,35.72
2022-08-03T16:55:43.455Z,35.73
2022-08-03T16:58:34.511Z,35.59
2022-08-03T17:01:20.791Z,35.57
2022-08-03T17:04:03.218Z,35.51
2022-08-03T17:06:35.543Z,35.23
2022-08-03T17:09:15.237Z,35.27
2022-08-03T17:11:47.877Z,35.08
2022-08-03T17:14:22.580Z,35.08
2022-08-03T17:16:52.028Z,35.02
2022-08-03T17:19:23.201Z,35.02
2022-08-03T17:22:04.490Z,34.97
2022-08-03T17:24:34.360Z,34.86
2022-08-03T17:27:03.877Z,34.84
2022-08-03T17:29:45.299Z,34.78
2022-08-03T17:32:21.348Z,34.69
2022-08-03T17:34:50.399Z,34.73
2022-08-03T17:37:50.005Z,34.71
2022-08-03T17:40:08.026Z,34.81
2022-08-03T17:42:34.978Z,34.82
2022-08-03T17:45:06.480Z,34.82
2022-08-03T17:47:42.736Z,34.80
2022-08-03T17:50:24.755Z,34.86
2022-08-03T17:53:06.812Z,34.80
2022-08-03T17:58:35.468Z,34.81
2022-08-03T18:01:59.567Z,34.65
2022-08-03T18:04:12.723Z,34.67
2022-08-03T18:06:55.925Z,34.60
2022-08-03T18:10:05.317Z,34.40
2022-08-03T18:12:25.239Z,34.48
2022-08-03T18:15:01.615Z,34.22
2022-08-03T18:17:54.560Z,33.96
2022-08-03T18:20:34.548Z,33.87
2022-08-03T18:23:24.659Z,33.70
2022-08-03T18:26:01.718Z,33.59
2022-08-03T18:28:29.049Z,33.39
2022-08-03T18:30:57.214Z,33.27
2022-08-03T18:34:19.532Z,33.04
2022-08-03T18:36:29.414Z,33.16
2022-08-03T18:39:02.600Z,33.13
2022-08-03T18:41:35.109Z,33.06
2022-08-03T18:44:07.901Z,32.97
2022-08-03T18:47:07.373Z,32.94
2022-08-03T18:50:10.842Z,32.71
2022-08-03T18:52:45.974Z,32.60
2022-08-03T18:55:35.525Z,32.49
2022-08-03T18:58:35.434Z,32.25
2022-08-03T19:01:59.738Z,32.03
2022-08-03T19:04:17.786Z,31.91
2022-08-03T19:06:59.142Z,31.65
2022-08-03T19:09:52.311Z,31.60
2022-08-03T19:12:28.182Z,31.30
2022-08-03T19:15:12.402Z,31.19
2022-08-03T19:17:53.309Z,31.20
2022-08-03T19:20:25.669Z,31.09
2022-08-03T19:22:54.630Z,30.84
2022-08-03T19:25:33.347Z,30.80
2022-08-03T19:28:05.810Z,30.60
2022-08-03T19:30:40.659Z,30.50
2022-08-03T19:33:15.112Z,30.21
2022-08-03T19:35:51.473Z,30.05
2022-08-03T19:38:29.163Z,29.83
2022-08-03T19:40:59.686Z,29.67
2022-08-03T19:43:53.513Z,29.82
2022-08-03T19:46:30.357Z,29.67
2022-08-03T19:49:15.116Z,29.79
2022-08-03T19:52:01.961Z,29.35
2022-08-03T19:54:53.321Z,29.48
2022-08-03T19:57:25.192Z,29.39
2022-08-03T19:59:54.180Z,29.48
2022-08-03T20:02:26.416Z,29.26
2022-08-03T20:04:57.215Z,28.84
2022-08-03T20:07:26.254Z,28.48
2022-08-03T20:09:56.711Z,28.50
2022-08-03T20:12:28.016Z,28.69
2022-08-03T20:14:59.351Z,28.61
2022-08-03T20:17:54.039Z,27.88
2022-08-03T20:20:13.917Z,27.87
2022-08-03T20:22:45.510Z,28.12
2022-08-03T20:25:16.300Z,28.22
2022-08-03T20:28:07.672Z,28.29
2022-08-03T20:30:42.609Z,28.19
2022-08-03T20:33:10.307Z,27.85
2022-08-03T20:35:37.049Z,28.47
2022-08-03T20:38:03.971Z,28.41
2022-08-03T20:40:34.551Z,28.09
2022-08-03T20:43:04.965Z,28.02
2022-08-03T20:46:01.206Z,28.13
2022-08-03T20:51:15.730Z,28.26
2022-08-03T20:54:00.082Z,28.24
2022-08-03T20:56:36.473Z,28.14
2022-08-03T20:59:05.690Z,28.00
2022-08-03T21:01:36.599Z,27.67
2022-08-03T21:07:16.273Z,27.18
2022-08-03T21:09:57.125Z,27.14
2022-08-03T21:12:41.649Z,27.25
2022-08-03T21:13:03.947Z,34.77
2022-08-03T21:13:12.079Z,28.03
2022-08-03T21:15:09.880Z,27.36
2022-08-03T21:18:01.243Z,27.09
2022-08-03T21:20:33.476Z,27.25
2022-08-03T21:23:00.917Z,27.11
2022-08-03T21:25:30.392Z,26.91
2022-08-03T21:27:58.084Z,26.99
2022-08-03T21:30:26.429Z,27.03
2022-08-03T21:32:54.594Z,26.90
2022-08-03T21:35:24.163Z,26.99
2022-08-03T21:38:11.780Z,26.63
2022-08-03T21:40:40.987Z,26.87
2022-08-03T21:43:08.210Z,26.65
2022-08-03T21:45:48.412Z,26.73
2022-08-03T21:48:16.849Z,26.86
2022-08-03T21:50:45.573Z,26.90
2022-08-03T21:53:14.520Z,26.52
2022-08-03T21:55:57.277Z,26.18
2022-08-03T21:58:41.993Z,26.46
2022-08-03T22:01:10.546Z,26.34
2022-08-03T22:03:53.856Z,26.42
2022-08-03T22:06:22.432Z,26.47
2022-08-03T22:08:53.820Z,26.51
2022-08-03T22:11:20.719Z,25.78
2022-08-03T22:13:47.732Z,26.10
2022-08-03T22:16:15.048Z,26.09
2022-08-03T22:18:45.237Z,26.08
2022-08-03T22:21:28.150Z,26.20
2022-08-03T22:24:05.367Z,26.23
2022-08-03T22:26:35.404Z,26.31
2022-08-03T22:29:07.400Z,26.46
2022-08-03T22:31:58.684Z,26.47
2022-08-03T22:34:26.546Z,26.37
2022-08-03T22:37:00.468Z,26.09
2022-08-03T22:39:28.980Z,25.87
2022-08-03T22:41:59.103Z,25.84
2022-08-03T22:44:27.181Z,25.73
2022-08-03T22:46:54.544Z,25.80
2022-08-03T22:49:24.905Z,25.84
2022-08-03T22:51:52.010Z,25.76
2022-08-03T22:54:18.697Z,26.02
2022-08-03T22:56:49.937Z,25.72
2022-08-03T22:59:41.468Z,25.68
2022-08-03T23:02:20.996Z,25.76
2022-08-03T23:04:57.557Z,25.52
2022-08-03T23:07:33.002Z,25.68
2022-08-03T23:10:01.906Z,25.63
2022-08-03T23:12:30.598Z,25.54
2022-08-03T23:15:02.573Z,25.55
2022-08-03T23:17:33.112Z,25.57
2022-08-03T23:20:04.977Z,25.43
2022-08-03T23:22:35.052Z,25.25
2022-08-03T23:25:04.824Z,25.46
2022-08-03T23:27:35.434Z,25.58
2022-08-03T23:30:02.867Z,25.26
2022-08-03T23:32:31.030Z,25.30
2022-08-03T23:35:22.858Z,25.17
2022-08-03T23:38:22.345Z,24.88
2022-08-03T23:40:51.388Z,24.51
2022-08-03T23:43:45.027Z,24.29
2022-08-03T23:46:09.035Z,24.62
2022-08-03T23:48:35.987Z,24.67
2022-08-03T23:51:11.877Z,24.66
2022-08-03T23:53:51.520Z,24.83
2022-08-03T23:56:50.845Z,24.87
2022-08-03T23:59:59.621Z,25.12
